Главная страница
METAR-TAF:

METAR-TAF

Аэропорты :

Порт-Морсби, Папуа - Новая Гвинея

широта: 09-26S, долгота: 147-13E, высота над уровнем моря: 38 м

Текущие метеонаблюдения

Эта сводка был подготовлена 54 минут назад, в 11:00 UTC
Ветер 14 Узел от юго-восточный
Температура 25°C
Влажность 94%
Давление 1013 hPa
Видимость 10 км и более
Отдельные облака на высоте 4800 фута
Отдельные облака на высоте 8000 фута

METAR: AYPY 211100Z 13014KT 9999 SCT048 SCT080 25/24 Q1013

Время: 21:54 (11:54 UTC)

Прогноз

Эта сводка был подготовлена 3 часа и 24 минут назад, в 08:30 UTC
Прогноз действительный с 21-го 12 UTC до 22-го 12 UTC
Ветер 15 Узел от юго-восточный с порывами до 26 Узел
Видимость 10 км и более
Отдельные облака на высоте 3000 фута
Рассеянная облачность на высоте 1400 фута
С 21-го 1800 UTC
Ветер 15 Узел от юго-юго-восточный
Видимость 10 км и более
Рассеянная облачность на высоте 3000 фута

TAF: AYPY 210830Z 2112/2212 14015G26KT 9999 SCT030 BKN014 FM211800 15015KT 9999 BKN030

Метеонаблюдения и прогнозы для более 4000 аэропортов (сводки METAR и TAF).

Имеющиеся станции представлены на карте желтыми и красными точками.

Чтобы увидеть название станции, наведите на нее мышь.

Затем щелкните, чтобы увидеть метеонаблюдения и метеопрогнозы.

Управление картой: чтобы увеличить масштаб, щелкните зеленые кнопки с черным крестиком; чтобы уменьшить масштаб, щелкните зеленую кнопку с тире; для просмотра соседних карт щелкайте зеленые стрелки.


METAR-TAF: